createdAt,value
2018-12-02T00:00:18.953Z,8.20
2018-12-02T00:02:47.178Z,8.20
2018-12-02T00:05:15.315Z,8.30
2018-12-02T00:07:43.457Z,8.30
2018-12-02T00:10:13.736Z,8.20
2018-12-02T00:12:41.891Z,8.30
2018-12-02T00:15:16.039Z,8.30
2018-12-02T00:17:44.217Z,8.30
2018-12-02T00:20:13.267Z,8.40
2018-12-02T00:22:41.430Z,8.30
2018-12-02T00:25:11.312Z,8.30
2018-12-02T00:27:39.624Z,8.40
2018-12-02T00:30:15.106Z,8.40
2018-12-02T00:32:43.309Z,8.30
2018-12-02T00:35:12.388Z,8.40
2018-12-02T00:37:40.752Z,8.30
2018-12-02T00:40:12.846Z,8.30
2018-12-02T00:42:41.745Z,8.40
2018-12-02T00:45:11.726Z,8.40
2018-12-02T00:47:39.875Z,8.40
2018-12-02T00:50:10.181Z,8.40
2018-12-02T00:52:38.445Z,8.40
2018-12-02T00:55:10.153Z,8.40
2018-12-02T00:57:38.272Z,8.50
2018-12-02T01:00:09.117Z,8.50
2018-12-02T01:02:37.358Z,8.50
2018-12-02T01:05:07.357Z,8.50
2018-12-02T01:07:35.497Z,8.50
2018-12-02T01:10:03.643Z,8.50
2018-12-02T01:12:31.785Z,8.50
2018-12-02T01:14:59.912Z,8.50
2018-12-02T01:17:28.165Z,8.50
2018-12-02T01:19:56.289Z,8.50
2018-12-02T01:22:24.444Z,8.40
2018-12-02T01:24:52.583Z,8.40
2018-12-02T01:27:20.737Z,8.40
2018-12-02T01:29:49.953Z,8.40
2018-12-02T01:32:18.107Z,8.30
2018-12-02T01:34:46.244Z,8.40
2018-12-02T01:37:14.377Z,8.40
2018-12-02T01:39:42.524Z,8.40
2018-12-02T01:42:10.676Z,8.40
2018-12-02T01:44:38.822Z,8.40
2018-12-02T01:47:07.968Z,8.50
2018-12-02T01:49:36.117Z,8.50
2018-12-02T01:52:04.553Z,8.50
2018-12-02T01:54:32.770Z,8.60
2018-12-02T01:57:00.925Z,8.50
2018-12-02T01:59:29.062Z,8.50
2018-12-02T02:01:57.241Z,8.50
2018-12-02T02:04:25.370Z,8.50
2018-12-02T02:06:53.504Z,8.50
2018-12-02T02:09:21.648Z,8.60
2018-12-02T02:11:49.801Z,8.60
2018-12-02T02:14:17.937Z,8.60
2018-12-02T02:16:46.098Z,8.60
2018-12-02T02:19:14.225Z,8.70
2018-12-02T02:21:59.209Z,8.70
2018-12-02T02:24:27.366Z,8.80
2018-12-02T02:26:55.522Z,8.70
2018-12-02T02:29:23.693Z,8.70
2018-12-02T02:31:51.828Z,8.70
2018-12-02T02:34:19.998Z,8.70
2018-12-02T02:36:48.120Z,8.70
2018-12-02T02:39:16.289Z,8.70
2018-12-02T02:41:44.433Z,8.70
2018-12-02T02:44:14.637Z,8.70
2018-12-02T02:46:42.781Z,8.60
2018-12-02T02:49:10.937Z,8.60
2018-12-02T02:51:39.090Z,8.60
2018-12-02T02:54:07.233Z,8.60
2018-12-02T02:56:35.376Z,8.60
2018-12-02T02:59:03.541Z,8.50
2018-12-02T03:01:31.718Z,8.50
2018-12-02T03:03:59.893Z,8.40
2018-12-02T03:06:28.023Z,8.20
2018-12-02T03:08:56.173Z,8.10
2018-12-02T03:11:24.313Z,8.10
2018-12-02T03:13:52.481Z,8.10
2018-12-02T03:16:20.612Z,8.10
2018-12-02T03:18:48.746Z,8.00
2018-12-02T03:21:16.880Z,8.00
2018-12-02T03:23:45.049Z,8.00
2018-12-02T03:26:13.241Z,8.00
2018-12-02T03:28:41.378Z,8.00
2018-12-02T03:31:09.699Z,8.00
2018-12-02T03:33:37.854Z,8.00
2018-12-02T03:36:06.009Z,8.00
2018-12-02T03:38:34.173Z,7.90
2018-12-02T03:41:02.339Z,7.90
2018-12-02T03:43:30.516Z,7.90
2018-12-02T03:45:58.687Z,7.90
2018-12-02T03:48:26.869Z,7.90
2018-12-02T03:50:55.015Z,7.90
2018-12-02T03:53:23.182Z,7.90
2018-12-02T03:55:51.437Z,7.90
2018-12-02T03:58:19.595Z,7.90
2018-12-02T04:00:47.724Z,7.80
2018-12-02T04:03:15.868Z,7.80
2018-12-02T04:05:44.006Z,7.90
2018-12-02T04:08:12.119Z,7.80
2018-12-02T04:10:40.250Z,7.90
2018-12-02T04:13:08.393Z,7.90
2018-12-02T04:15:36.536Z,7.90
2018-12-02T04:18:04.723Z,7.80
2018-12-02T04:20:32.860Z,7.80
2018-12-02T04:23:00.981Z,7.80
2018-12-02T04:25:29.122Z,7.70
2018-12-02T04:27:57.258Z,7.70
2018-12-02T04:30:25.467Z,7.70
2018-12-02T04:32:54.029Z,7.80
2018-12-02T04:35:26.119Z,7.70
2018-12-02T04:37:54.751Z,7.70
2018-12-02T04:40:22.952Z,7.70
2018-12-02T04:42:51.183Z,7.70
2018-12-02T04:45:19.880Z,7.80
2018-12-02T04:47:48.257Z,7.70
2018-12-02T04:50:18.383Z,7.80
2018-12-02T04:52:46.547Z,7.80
2018-12-02T04:55:14.786Z,7.70
2018-12-02T04:57:42.963Z,7.80
2018-12-02T05:00:15.033Z,7.70
2018-12-02T05:02:43.950Z,7.70
2018-12-02T05:05:13.331Z,7.70
2018-12-02T05:07:41.896Z,7.70
2018-12-02T05:10:13.774Z,7.70
2018-12-02T05:12:41.968Z,7.80
2018-12-02T05:15:12.292Z,7.70
2018-12-02T05:17:40.496Z,7.80
2018-12-02T05:20:10.394Z,7.80
2018-12-02T05:22:38.576Z,7.80
2018-12-02T05:25:08.219Z,7.80
2018-12-02T05:27:36.423Z,7.80
2018-12-02T05:30:07.467Z,7.80
2018-12-02T05:32:35.734Z,7.80
2018-12-02T05:35:03.947Z,7.90
2018-12-02T05:37:32.156Z,7.90
2018-12-02T05:40:00.349Z,7.90
2018-12-02T05:42:33.280Z,7.80
2018-12-02T05:45:01.656Z,7.90
2018-12-02T05:47:29.836Z,7.90
2018-12-02T05:49:58.080Z,7.90
2018-12-02T05:52:26.280Z,7.90
2018-12-02T05:54:54.434Z,7.90
2018-12-02T05:57:22.615Z,7.90
2018-12-02T05:59:51.034Z,7.90
2018-12-02T06:02:19.386Z,7.90
2018-12-02T06:04:47.613Z,7.90
2018-12-02T06:07:15.779Z,7.90
2018-12-02T06:09:43.986Z,7.90
2018-12-02T06:12:12.175Z,8.00
2018-12-02T06:14:40.375Z,7.90
2018-12-02T06:17:08.586Z,7.90
2018-12-02T06:19:36.791Z,7.90
2018-12-02T06:22:05.457Z,7.90
2018-12-02T06:24:33.640Z,7.90
2018-12-02T06:27:01.874Z,7.90
2018-12-02T06:29:30.068Z,8.00
2018-12-02T06:31:58.257Z,8.00
2018-12-02T06:34:26.579Z,8.00
2018-12-02T06:36:54.728Z,8.00
2018-12-02T06:39:22.920Z,8.00
2018-12-02T06:41:51.967Z,8.00
2018-12-02T06:44:20.247Z,8.00
2018-12-02T06:46:48.422Z,7.90
2018-12-02T06:49:16.614Z,8.00
2018-12-02T06:51:44.805Z,8.00
2018-12-02T06:54:12.981Z,8.00
2018-12-02T06:56:41.165Z,8.00
2018-12-02T06:59:16.398Z,8.10
2018-12-02T07:01:49.462Z,8.00
2018-12-02T07:04:25.934Z,8.10
2018-12-02T07:06:54.164Z,8.10
2018-12-02T07:09:22.366Z,8.00
2018-12-02T07:11:50.564Z,8.00
2018-12-02T07:14:18.823Z,8.10
2018-12-02T07:16:47.073Z,8.10
2018-12-02T07:19:17.103Z,8.20
2018-12-02T07:21:47.027Z,8.20
2018-12-02T07:24:15.193Z,8.20
2018-12-02T07:26:43.402Z,8.20
2018-12-02T07:29:11.641Z,8.20
2018-12-02T07:31:39.812Z,8.20
2018-12-02T07:34:07.985Z,8.30
2018-12-02T07:36:36.198Z,8.30
2018-12-02T07:39:18.767Z,8.30
2018-12-02T07:41:46.948Z,8.30
2018-12-02T07:44:15.123Z,8.30
2018-12-02T07:46:43.298Z,8.30
2018-12-02T07:49:11.469Z,8.30
2018-12-02T07:51:39.725Z,8.30
2018-12-02T07:54:07.902Z,8.40
2018-12-02T07:56:36.099Z,8.30
2018-12-02T07:59:04.307Z,8.40
2018-12-02T08:01:32.489Z,8.30
2018-12-02T08:04:00.995Z,8.30
2018-12-02T08:06:29.179Z,8.40
2018-12-02T08:08:57.363Z,8.30
2018-12-02T08:11:25.550Z,8.30
2018-12-02T08:13:53.760Z,8.40
2018-12-02T08:16:21.942Z,8.40
2018-12-02T08:18:50.148Z,8.50
2018-12-02T08:21:18.403Z,8.50
2018-12-02T08:23:46.575Z,8.50
2018-12-02T08:26:14.736Z,8.50
2018-12-02T08:28:42.997Z,8.50
2018-12-02T08:31:11.358Z,8.60
2018-12-02T08:33:39.569Z,8.60
2018-12-02T08:36:07.790Z,8.60
2018-12-02T08:38:36.123Z,8.70
2018-12-02T08:41:04.491Z,8.80
2018-12-02T08:43:32.734Z,8.80
2018-12-02T08:46:00.952Z,8.80
2018-12-02T08:48:29.120Z,8.80
2018-12-02T08:50:57.303Z,8.80
2018-12-02T08:53:25.501Z,8.80
2018-12-02T08:55:53.715Z,8.70
2018-12-02T08:58:21.915Z,8.70
2018-12-02T09:00:50.317Z,8.70
2018-12-02T09:03:18.487Z,8.70
2018-12-02T09:05:46.813Z,8.80
2018-12-02T09:08:15.019Z,8.80
2018-12-02T09:10:44.905Z,8.80
2018-12-02T09:13:11.947Z,8.70
2018-12-02T09:15:40.176Z,8.80
2018-12-02T09:18:09.605Z,8.80
2018-12-02T09:20:38.180Z,8.80
2018-12-02T09:23:08.139Z,8.80
2018-12-02T09:25:36.366Z,8.80
2018-12-02T09:28:04.599Z,8.80
2018-12-02T09:30:33.892Z,8.80
2018-12-02T09:33:02.084Z,8.90
2018-12-02T09:35:30.306Z,8.90
2018-12-02T09:37:58.522Z,8.90
2018-12-02T09:40:26.747Z,8.90
2018-12-02T09:42:55.450Z,8.90
2018-12-02T09:45:24.808Z,8.90
2018-12-02T09:47:53.481Z,9.00
2018-12-02T09:50:21.714Z,8.90
2018-12-02T09:52:49.914Z,8.90
2018-12-02T09:55:23.410Z,9.00
2018-12-02T09:57:52.615Z,9.00
2018-12-02T10:00:21.347Z,9.00
2018-12-02T10:02:49.560Z,9.00
2018-12-02T10:05:17.751Z,9.10
2018-12-02T10:07:46.389Z,9.00
2018-12-02T10:10:22.946Z,9.10
2018-12-02T10:12:53.033Z,9.20
2018-12-02T10:15:21.227Z,9.20
2018-12-02T10:17:49.431Z,9.20
2018-12-02T10:20:17.644Z,9.30
2018-12-02T10:22:46.488Z,9.30
2018-12-02T10:25:15.514Z,9.30
2018-12-02T10:27:43.720Z,9.40
2018-12-02T10:30:14.053Z,9.30
2018-12-02T10:32:42.198Z,9.40
2018-12-02T10:35:10.382Z,9.40
2018-12-02T10:37:38.541Z,9.40
2018-12-02T10:40:10.719Z,9.40
2018-12-02T10:42:38.869Z,9.40
2018-12-02T10:45:12.696Z,9.60
2018-12-02T10:47:40.965Z,9.60
2018-12-02T10:50:20.473Z,9.70
2018-12-02T10:52:49.413Z,9.70
2018-12-02T10:55:55.184Z,9.80
2018-12-02T10:58:39.489Z,9.80
2018-12-02T11:01:13.347Z,10.00
2018-12-02T11:03:41.520Z,10.00
2018-12-02T11:06:09.719Z,10.00
2018-12-02T11:08:37.881Z,10.00
2018-12-02T11:11:06.110Z,10.10
2018-12-02T11:13:34.256Z,10.10
2018-12-02T11:16:02.463Z,10.10
2018-12-02T11:18:30.663Z,10.10
2018-12-02T11:20:58.816Z,10.10
2018-12-02T11:23:26.965Z,10.20
2018-12-02T11:25:55.094Z,10.20
2018-12-02T11:28:23.232Z,10.20
2018-12-02T11:30:51.373Z,10.30
2018-12-02T11:33:19.581Z,10.30
2018-12-02T11:35:47.727Z,10.40
2018-12-02T11:38:15.882Z,10.50
2018-12-02T11:40:44.061Z,10.50
2018-12-02T11:43:12.270Z,10.70
2018-12-02T11:45:40.402Z,10.80
2018-12-02T11:48:09.006Z,11.00
2018-12-02T11:50:39.075Z,11.00
2018-12-02T11:53:07.718Z,11.00
2018-12-02T11:55:35.863Z,11.10
2018-12-02T11:58:04.148Z,11.20
2018-12-02T12:00:33.788Z,11.10
2018-12-02T12:03:02.041Z,11.10
2018-12-02T12:05:30.285Z,11.10
2018-12-02T12:07:58.544Z,11.00
2018-12-02T12:10:27.652Z,11.00
2018-12-02T12:12:58.908Z,11.10
2018-12-02T12:15:28.161Z,11.00
2018-12-02T12:17:56.877Z,11.00
2018-12-02T12:20:29.184Z,11.10
2018-12-02T12:22:57.474Z,11.10
2018-12-02T12:25:25.716Z,11.10
2018-12-02T12:27:55.160Z,11.10
2018-12-02T12:30:26.530Z,11.10
2018-12-02T12:32:54.793Z,11.20
2018-12-02T12:35:23.607Z,11.10
2018-12-02T12:37:51.885Z,11.20
2018-12-02T12:40:22.097Z,11.20
2018-12-02T12:43:27.705Z,11.20
2018-12-02T12:45:55.990Z,11.20
2018-12-02T12:48:24.296Z,11.20
2018-12-02T12:50:52.438Z,11.30
2018-12-02T12:53:20.674Z,11.30
2018-12-02T12:55:50.974Z,11.40
2018-12-02T12:58:17.564Z,11.50
2018-12-02T13:00:45.824Z,11.60
2018-12-02T13:03:14.085Z,11.70
2018-12-02T13:05:42.523Z,11.90
2018-12-02T13:08:11.912Z,12.00
2018-12-02T13:10:40.194Z,12.30
2018-12-02T13:13:08.431Z,12.40
2018-12-02T13:15:36.577Z,12.20
2018-12-02T13:18:08.352Z,12.10
2018-12-02T13:20:44.061Z,12.10
2018-12-02T13:23:12.362Z,12.10
2018-12-02T13:25:40.604Z,12.10
2018-12-02T13:28:08.875Z,12.00
2018-12-02T13:30:37.244Z,11.90
2018-12-02T13:33:06.406Z,11.90
2018-12-02T13:35:34.722Z,11.90
2018-12-02T13:38:02.985Z,11.90
2018-12-02T13:40:31.172Z,11.80
2018-12-02T13:43:02.758Z,11.80
2018-12-02T13:45:31.848Z,11.80
2018-12-02T13:48:00.146Z,11.70
2018-12-02T13:50:28.407Z,11.70
2018-12-02T13:52:57.327Z,11.70
2018-12-02T13:55:28.466Z,11.70
2018-12-02T13:57:56.879Z,11.70
2018-12-02T14:00:25.839Z,11.70
2018-12-02T14:02:57.051Z,11.70
2018-12-02T14:05:25.241Z,11.70
2018-12-02T14:07:53.487Z,11.70
2018-12-02T14:10:21.783Z,11.70
2018-12-02T14:12:55.464Z,11.70
2018-12-02T14:15:27.667Z,11.70
2018-12-02T14:18:00.436Z,11.70
2018-12-02T14:20:28.628Z,11.80
2018-12-02T14:22:56.917Z,11.70
2018-12-02T14:25:25.275Z,11.70
2018-12-02T14:27:53.798Z,11.70
2018-12-02T14:30:23.261Z,11.80
2018-12-02T14:32:51.486Z,11.90
2018-12-02T14:35:19.623Z,11.90
2018-12-02T14:37:47.793Z,12.30
2018-12-02T14:40:15.957Z,12.70
2018-12-02T14:42:44.703Z,12.70
2018-12-02T14:45:16.962Z,12.60
2018-12-02T14:47:53.796Z,12.50
2018-12-02T14:50:21.948Z,12.60
2018-12-02T14:52:50.213Z,12.40
2018-12-02T14:55:19.214Z,12.40
2018-12-02T14:57:47.519Z,12.40
2018-12-02T15:00:17.610Z,12.30
2018-12-02T15:02:45.826Z,12.30
2018-12-02T15:05:14.405Z,12.30
2018-12-02T15:07:44.323Z,12.40
2018-12-02T15:10:17.379Z,12.30
2018-12-02T15:12:46.571Z,12.30
2018-12-02T15:15:15.870Z,12.20
2018-12-02T15:17:44.929Z,12.20
2018-12-02T15:20:17.264Z,12.10
2018-12-02T15:22:45.589Z,12.00
2018-12-02T15:25:14.471Z,12.00
2018-12-02T15:27:43.428Z,11.90
2018-12-02T15:30:16.477Z,11.90
2018-12-02T15:32:46.135Z,12.00
2018-12-02T15:35:14.397Z,12.00
2018-12-02T15:37:42.647Z,11.90
2018-12-02T15:40:12.423Z,11.90
2018-12-02T15:42:44.123Z,11.90
2018-12-02T15:45:13.393Z,11.80
2018-12-02T15:47:41.581Z,11.80
2018-12-02T15:50:13.510Z,11.80
2018-12-02T15:52:41.817Z,11.70
2018-12-02T15:55:11.653Z,11.60
2018-12-02T15:57:39.908Z,11.60
2018-12-02T16:00:16.644Z,11.60
2018-12-02T16:02:44.961Z,11.50
2018-12-02T16:05:13.163Z,11.50
2018-12-02T16:07:41.460Z,11.50
2018-12-02T16:10:10.997Z,11.50
2018-12-02T16:12:39.264Z,11.50
2018-12-02T16:15:11.238Z,11.50
2018-12-02T16:17:39.500Z,11.50
2018-12-02T16:20:10.069Z,11.60
2018-12-02T16:22:38.381Z,11.50
2018-12-02T16:25:07.644Z,11.50
2018-12-02T16:27:35.947Z,11.40
2018-12-02T16:30:10.884Z,11.40
2018-12-02T16:32:40.231Z,11.40
2018-12-02T16:35:10.066Z,11.50
2018-12-02T16:37:40.395Z,11.60
2018-12-02T16:40:14.250Z,11.60
2018-12-02T16:42:42.452Z,11.60
2018-12-02T16:45:12.039Z,11.60
2018-12-02T16:47:40.332Z,11.60
2018-12-02T16:50:14.006Z,11.60
2018-12-02T16:52:42.185Z,11.60
2018-12-02T16:55:12.618Z,11.60
2018-12-02T16:57:40.836Z,11.60
2018-12-02T17:00:14.985Z,11.60
2018-12-02T17:02:43.138Z,11.60
2018-12-02T17:05:11.847Z,11.60
2018-12-02T17:07:39.993Z,11.60
2018-12-02T17:10:09.904Z,11.60
2018-12-02T17:12:41.245Z,11.60
2018-12-02T17:15:12.441Z,11.60
2018-12-02T17:17:40.811Z,11.60
2018-12-02T17:20:11.845Z,11.60
2018-12-02T17:22:40.045Z,11.50
2018-12-02T17:25:09.997Z,11.50
2018-12-02T17:27:38.127Z,11.50
2018-12-02T17:30:16.222Z,11.60
2018-12-02T17:32:44.385Z,11.60
2018-12-02T17:35:12.592Z,11.50
2018-12-02T17:37:42.820Z,11.50
2018-12-02T17:40:15.556Z,11.60
2018-12-02T17:42:43.709Z,11.50
2018-12-02T17:45:11.925Z,11.50
2018-12-02T17:47:40.127Z,11.50
2018-12-02T17:50:11.768Z,11.50
2018-12-02T17:52:40.169Z,11.50
2018-12-02T17:55:08.405Z,11.50
2018-12-02T17:57:36.622Z,11.50
2018-12-02T18:00:10.066Z,11.50
2018-12-02T18:02:38.274Z,11.50
2018-12-02T18:05:09.988Z,11.50
2018-12-02T18:07:38.141Z,11.50
2018-12-02T18:10:09.673Z,11.50
2018-12-02T18:12:37.963Z,11.40
2018-12-02T18:15:09.793Z,11.40
2018-12-02T18:17:37.992Z,11.40
2018-12-02T18:20:08.482Z,11.50
2018-12-02T18:22:36.645Z,11.40
2018-12-02T18:25:06.769Z,11.50
2018-12-02T18:27:34.992Z,11.50
2018-12-02T18:32:55.759Z,11.50
2018-12-02T18:35:30.768Z,11.50
2018-12-02T18:38:01.781Z,11.40
2018-12-02T18:40:30.218Z,11.40
2018-12-02T18:42:58.471Z,11.40
2018-12-02T18:45:26.647Z,11.40
2018-12-02T18:47:54.882Z,11.40
2018-12-02T18:50:23.069Z,11.40
2018-12-02T18:52:51.381Z,11.50
2018-12-02T18:55:19.584Z,11.60
2018-12-02T18:57:47.819Z,11.50
2018-12-02T19:00:22.554Z,11.40
2018-12-02T19:02:53.602Z,11.30
2018-12-02T19:05:21.859Z,11.30
2018-12-02T19:07:50.072Z,11.40
2018-12-02T19:10:19.993Z,11.40
2018-12-02T19:12:48.160Z,11.40
2018-12-02T19:15:16.348Z,11.40
2018-12-02T19:17:44.873Z,11.30
2018-12-02T19:20:19.726Z,11.40
2018-12-02T19:22:49.944Z,11.40
2018-12-02T19:25:20.091Z,11.30
2018-12-02T19:27:48.327Z,11.30
2018-12-02T19:30:16.912Z,11.20
2018-12-02T19:32:46.394Z,11.20
2018-12-02T19:35:16.664Z,11.10
2018-12-02T19:37:46.595Z,10.90
2018-12-02T19:40:16.637Z,10.80
2018-12-02T19:42:46.291Z,10.70
2018-12-02T19:45:15.913Z,10.70
2018-12-02T19:47:44.507Z,10.80
2018-12-02T19:50:14.375Z,10.90
2018-12-02T19:52:43.061Z,10.80
2018-12-02T19:55:12.424Z,10.90
2018-12-02T19:57:42.486Z,10.80
2018-12-02T20:00:18.773Z,10.80
2018-12-02T20:02:47.457Z,10.80
2018-12-02T20:05:16.181Z,10.80
2018-12-02T20:07:45.746Z,10.80
2018-12-02T20:10:15.938Z,10.80
2018-12-02T20:12:44.511Z,10.80
2018-12-02T20:15:14.275Z,10.90
2018-12-02T20:17:44.268Z,10.90
2018-12-02T20:20:19.617Z,11.00
2018-12-02T20:22:47.885Z,10.90
2018-12-02T20:25:17.611Z,10.90
2018-12-02T20:27:46.090Z,11.00
2018-12-02T20:30:16.181Z,11.00
2018-12-02T20:32:44.437Z,11.10
2018-12-02T20:35:12.797Z,11.10
2018-12-02T20:37:41.328Z,11.00
2018-12-02T20:40:19.208Z,11.00
2018-12-02T20:42:48.327Z,11.10
2018-12-02T20:45:17.528Z,11.00
2018-12-02T20:47:46.189Z,11.00
2018-12-02T20:50:15.745Z,10.90
2018-12-02T20:52:44.315Z,10.80
2018-12-02T20:55:15.037Z,10.70
2018-12-02T20:57:43.547Z,10.60
2018-12-02T21:00:16.528Z,10.50
2018-12-02T21:02:46.532Z,10.50
2018-12-02T21:05:22.038Z,10.50
2018-12-02T21:07:50.494Z,10.50
2018-12-02T21:10:18.760Z,10.50
2018-12-02T21:12:47.302Z,10.50
2018-12-02T21:15:16.596Z,10.50
2018-12-02T21:17:45.215Z,10.50
2018-12-02T21:20:13.636Z,10.40
2018-12-02T21:22:41.926Z,10.40
2018-12-02T21:25:21.490Z,10.40
2018-12-02T21:27:49.857Z,10.40
2018-12-02T21:30:20.778Z,10.40
2018-12-02T21:32:49.407Z,10.50
2018-12-02T21:35:18.935Z,10.60
2018-12-02T21:37:47.702Z,10.70
2018-12-02T21:40:16.906Z,10.70
2018-12-02T21:42:45.750Z,10.60
2018-12-02T21:45:17.404Z,10.70
2018-12-02T21:47:53.769Z,10.80
2018-12-02T21:50:25.650Z,10.80
2018-12-02T21:52:54.056Z,10.80
2018-12-02T21:55:23.429Z,10.70
2018-12-02T21:57:51.621Z,10.80
2018-12-02T22:00:25.327Z,10.80
2018-12-02T22:02:53.921Z,10.80
2018-12-02T22:05:22.132Z,10.80
2018-12-02T22:07:53.923Z,10.70
2018-12-02T22:10:24.629Z,10.60
2018-12-02T22:12:52.988Z,10.50
2018-12-02T22:15:21.240Z,10.50
2018-12-02T22:17:49.448Z,10.60
2018-12-02T22:20:18.717Z,10.70
2018-12-02T22:22:46.921Z,10.80
2018-12-02T22:25:17.021Z,10.80
2018-12-02T22:27:48.200Z,10.80
2018-12-02T22:30:18.401Z,10.90
2018-12-02T22:32:46.625Z,10.90
2018-12-02T22:35:15.527Z,10.90
2018-12-02T22:37:44.368Z,11.00
2018-12-02T22:40:14.901Z,11.00
2018-12-02T22:42:43.114Z,11.00
2018-12-02T22:45:12.773Z,11.00
2018-12-02T22:47:40.949Z,10.70
2018-12-02T22:50:14.334Z,10.60
2018-12-02T22:52:42.834Z,10.70
2018-12-02T22:55:11.625Z,10.90
2018-12-02T22:57:40.020Z,10.90
2018-12-02T23:00:12.501Z,10.90
2018-12-02T23:02:48.222Z,11.00
2018-12-02T23:05:16.432Z,10.90
2018-12-02T23:07:44.602Z,11.00
2018-12-02T23:10:12.832Z,10.90
2018-12-02T23:12:41.072Z,11.00
2018-12-02T23:15:09.390Z,11.10
2018-12-02T23:17:37.594Z,11.10
2018-12-02T23:20:08.236Z,11.10
2018-12-02T23:22:36.413Z,11.20
2018-12-02T23:25:04.793Z,11.20
2018-12-02T23:27:33.121Z,11.20
2018-12-02T23:30:01.401Z,11.30
2018-12-02T23:32:29.652Z,11.40
2018-12-02T23:34:57.818Z,11.40
2018-12-02T23:37:25.990Z,11.40
2018-12-02T23:39:54.143Z,11.40
2018-12-02T23:42:22.339Z,11.40
2018-12-02T23:44:50.540Z,11.40
2018-12-02T23:47:18.924Z,11.50
2018-12-02T23:49:47.109Z,11.60
2018-12-02T23:52:15.377Z,11.60
2018-12-02T23:54:43.529Z,11.50
2018-12-02T23:57:11.724Z,11.50
2018-12-02T23:59:40.019Z,11.50
